Station 44032 - Buoy E01 - Central Maine Shelf Image indicating link to RSS feed of recent meteorological observations for station 44032


Conditions at 44032 as of
(3:00 pm EDT)
1900 GMT on 09/06/2026:
     

Click on the graph icon in the table below to see a time series plot of the last five days of that observation.

5-day plot - Wind Direction Wind Direction (WDIR):NNW ( 330 deg true )
5-day plot - Wind Speed Wind Speed (WSPD): 1.9 kts
5-day plot - Wind Gust Wind Gust (GST): 3.9 kts
5-day plot - Air Temperature Air Temperature (ATMP): 60.8 °F
5-day plot - Wind Speed at 10 Meters Wind Speed at 10 meters (WSPD10M): 3.9 kts
5-day plot - Wind Speed at 20 Meters Wind Speed at 20 meters (WSPD20M): 3.9 kts
5-day plot -  Wind Speed, Wind Gust and Atmospheric Pressure Combined plot of Wind Speed, Gust, and Air Pressure
Previous observations
TIME
(EDT)
5-day plot - Wind Direction
WDIR
 
5-day plot - Wind Speed
WSPD
kts
5-day plot - Wind Gust
GST
kts
5-day plot - Wave Height
WVHT
ft
5-day plot - Dominant Wave Period
DPD
sec
5-day plot - Average Wave Period
APD
sec
5-day plot - Mean Wave Direction
MWD
 
5-day plot - Atmospheric Pressure
PRES
in
5-day plot - Pressure Tendency
PTDY
in
5-day plot - Air Temperature
ATMP
°F
5-day plot - Water Temperature
WTMP
°F
5-day plot - Dew Point
DEWP
°F
5-day plot - Salinity
SAL
psu
5-day plot - Visibility
VIS
nmi
5-day plot - Tide (above MLLW)
TIDE
ft
2026-09-06 02:50 pmNNW 1.9 3.9------ 60.8-----
2026-09-06 02:40 pm S 1.9 1.9------ 60.6-- 32.07--
2026-09-06 02:30 pm SW 1.9 3.9------ 60.4-- 32.07--
2026-09-06 02:20 pm NE 5.8 9.7------ 60.1-- 32.07--
2026-09-06 02:10 pmENE 9.7 15.5------ 60.4-----
2026-09-06 02:00 pm E 7.8 13.6------ 59.7 60.3----
2026-09-06 01:50 pmSSE 7.8 9.7------ 59.9-----
2026-09-06 01:40 pmSSE 7.8 9.7------ 60.1-- 32.04--
2026-09-06 01:30 pm---------- 59.9- 32.04--
2026-09-06 01:20 pmSSE 5.8 9.7------ 61.0-- 32.04--
2026-09-06 01:10 pm E 3.9 5.8------ 63.1-----
2026-09-06 01:00 pm E 3.9 5.8 2.0 6---- 62.1 59.7----
2026-09-06 12:50 pm N 3.9 5.8------ 62.1-----
2026-09-06 12:40 pmNNW 3.9 5.8------ 61.5-- 32.06--
2026-09-06 12:30 pm NW 3.9 5.8------ 61.2-- 32.06--
2026-09-06 12:20 pm NW 3.9 5.8------ 61.0-- 32.06--
2026-09-06 12:10 pmNNW 5.8 7.8------ 61.2-- 32.07--
2026-09-06 12:00 pm--- 2.3 8------- 32.07--
2026-09-06 11:50 amNNW 7.8 7.8------ 60.8-- 32.07--
2026-09-06 11:40 amNNW 7.8 9.7------ 60.8-- 32.07--
2026-09-06 11:30 am N 7.8 9.7------ 60.6-- 32.07--
2026-09-06 11:20 am N 7.8 9.7------ 60.6-- 32.07--
2026-09-06 11:10 am N 7.8 9.7------ 60.4-----
2026-09-06 11:00 am N 9.7 11.7------ 60.3-----
2026-09-06 10:50 am N 9.7 11.7------ 60.3-----
2026-09-06 10:40 amNNW 9.7 11.7------ 59.9-- 32.06--
2026-09-06 10:30 amNNW 9.7 11.7------ 59.7-- 32.06--
2026-09-06 10:20 am N 9.7 11.7------ 59.2-- 32.06--
2026-09-06 10:10 am N 9.7 11.7------ 59.0-----
2026-09-06 10:00 am--- 2.3 7----------
2026-09-06 09:50 am N 11.7 13.6------ 58.6-----
2026-09-06 09:40 am N 11.7 13.6------ 58.5-- 32.04--
2026-09-06 09:30 am N 11.7 13.6------ 58.3-- 32.04--
2026-09-06 09:20 am N 13.6 15.5------ 58.1-- 32.04--
2026-09-06 09:10 am N 13.6 15.5------ 57.9-----
2026-09-06 09:00 am N 13.6 17.5 2.3 6---- 57.7 58.6----
2026-09-06 08:50 am N 13.6 15.5------ 57.7-----
2026-09-06 08:40 am N 13.6 15.5------ 57.7-- 32.04--
2026-09-06 08:30 am N 11.7 15.5------ 57.7-- 32.04--
2026-09-06 08:20 am N 13.6 15.5------ 57.7-- 32.04--
2026-09-06 08:10 am N 15.5 17.5------ 57.7-----
2026-09-06 08:00 am--- 2.6 3----------
2026-09-06 07:50 am N 15.5 19.4------ 57.6-----
2026-09-06 07:40 am N 15.5 19.4------ 57.4-- 32.04--
2026-09-06 07:30 am---------- 58.5- 32.04--
2026-09-06 07:20 am N 15.5 17.5------ 57.4-- 32.04--
2026-09-06 07:10 am N 15.5 19.4------ 57.4-----
2026-09-06 07:00 am N 15.5 17.5 2.6 5---- 57.4 58.5----
2026-09-06 06:50 am N 15.5 19.4------ 57.6-----
2026-09-06 06:40 am N 17.5 21.4------ 57.2-- 32.04--
2026-09-06 06:30 am N 17.5 19.4------ 57.2-- 32.04--
2026-09-06 06:20 am N 17.5 19.4------ 57.2-- 32.04--
2026-09-06 06:10 am N 15.5 17.5------ 57.2-- 32.04--
2026-09-06 06:00 am--- 2.6 5------- 32.04--
2026-09-06 05:50 am N 15.5 17.5------ 57.2-- 32.04--
2026-09-06 05:40 am N 13.6 17.5------ 57.2-- 32.04--
2026-09-06 05:30 am---------- 58.3- 32.04--
2026-09-06 05:20 am N 15.5 17.5------ 57.4-- 32.04--
2026-09-06 05:10 am N 15.5 17.5------ 57.4-----
2026-09-06 05:00 am N 13.6 17.5------ 57.4-----
2026-09-06 04:50 am N 13.6 17.5------ 57.4-----
2026-09-06 04:40 am N 11.7 15.5------ 57.4-- 32.04--
2026-09-06 04:30 am N 11.7 13.6------ 57.4-- 32.04--
2026-09-06 04:20 am N 11.7 15.5------ 57.4-- 32.04--
2026-09-06 04:10 am N 13.6 15.5------ 57.6-- 32.04--
2026-09-06 04:00 am N 13.6 15.5------ 57.7 58.5- 32.04--
2026-09-06 03:50 am N 13.6 15.5------ 57.9-- 32.04--
2026-09-06 03:40 am N 13.6 17.5------ 57.9-- 32.04--
2026-09-06 03:30 am---------- 58.6- 32.04--
2026-09-06 03:20 am N 11.7 15.5------ 58.3-- 32.04--
2026-09-06 03:10 am N 11.7 13.6------ 58.3-----
2026-09-06 03:00 am N 9.7 13.6------ 58.3-----
2026-09-06 02:50 am N 11.7 13.6------ 58.5-----
2026-09-06 02:40 am N 11.7 13.6------ 58.5-- 32.05--
2026-09-06 02:30 am N 9.7 13.6------ 58.5-- 32.05--
2026-09-06 02:20 am N 9.7 11.7------ 58.6-- 32.05--
2026-09-06 02:10 am N 9.7 13.6------ 58.6-----
2026-09-06 02:00 am--- 1.6 9----------
2026-09-06 01:50 am N 11.7 13.6------ 58.8-----
2026-09-06 01:40 am N 9.7 13.6------ 58.8-- 32.07--
2026-09-06 01:30 am---------- 58.6- 32.07--
2026-09-06 01:20 am N 7.8 11.7------ 59.0-- 32.07--
2026-09-06 01:10 am N 7.8 9.7------ 59.0-----
2026-09-06 01:00 am N 9.7 11.7------ 59.4 58.6----
2026-09-06 12:50 am N 7.8 9.7------ 59.0-----
2026-09-06 12:40 am N 5.8 7.8------ 58.8-- 32.08--
2026-09-06 12:30 amNNE 5.8 7.8------ 58.8-- 32.08--
2026-09-06 12:20 am NE 5.8 5.8------ 59.2-- 32.08--
2026-09-06 12:10 amNNE 5.8 7.8------ 59.4-- 32.09--
2026-09-06 12:00 amNNE 7.8 9.7------ 59.5-- 32.09--
2026-09-05 11:50 pmNNE 9.7 11.7------ 59.7-- 32.09--
2026-09-05 11:40 pmNNE 9.7 11.7------ 60.1-- 32.09--
2026-09-05 11:30 pmNNE 9.7 11.7------ 60.1-- 32.09--
2026-09-05 11:20 pmNNE 9.7 13.6------ 60.1-- 32.09--
2026-09-05 11:10 pm NE 11.7 15.5------ 60.3-----
2026-09-05 11:00 pm--- 1.6 2----------
2026-09-05 10:50 pm NE 13.6 15.5------ 60.6-----
2026-09-05 10:40 pm NE 15.5 17.5------ 61.2-- 32.09--
2026-09-05 10:30 pm NE 15.5 17.5------ 61.2-- 32.09--
2026-09-05 10:20 pm NE 15.5 19.4------ 61.3-- 32.09--
2026-09-05 10:10 pm NE 13.6 17.5------ 61.2-----
2026-09-05 10:00 pm NE 13.6 17.5------ 61.2-----
2026-09-05 09:50 pm NE 9.7 11.7------ 60.8-----
2026-09-05 09:40 pm NE 9.7 11.7------ 61.0-- 32.08--
2026-09-05 09:30 pm NE 7.8 11.7------ 60.8-- 32.08--
2026-09-05 09:20 pmENE 7.8 9.7------ 60.3-- 32.08--
2026-09-05 09:10 pmENE 7.8 7.8------ 60.1-----
2026-09-05 09:00 pmENE 7.8 9.7------ 60.4 59.2----
2026-09-05 08:50 pm NE 7.8 9.7------ 60.6-----
2026-09-05 08:40 pm NE 7.8 9.7------ 61.2-- 32.08--
2026-09-05 08:30 pm NE 11.7 15.5------ 62.4-- 32.08--
2026-09-05 08:20 pmNNE 11.7 15.5------ 62.6-- 32.08--
2026-09-05 08:10 pmNNE 7.8 11.7------ 61.9-----
2026-09-05 08:00 pm N 5.8 7.8 1.3 8---- 61.3 59.2----
2026-09-05 07:50 pmNNW 3.9 7.8------ 60.4-----
2026-09-05 07:40 pm N 5.8 5.8------ 60.6-- 32.08--
2026-09-05 07:30 pm---------- 59.2- 32.08--
2026-09-05 07:20 pm N 5.8 5.8------ 60.6-- 32.08--
2026-09-05 07:10 pm N 5.8 7.8------ 60.4-----
2026-09-05 07:00 pm N 5.8 7.8------ 60.4 59.2----
2026-09-05 06:50 pm N 7.8 9.7------ 60.8-----
2026-09-05 06:40 pm N 9.7 11.7------ 61.0-- 32.09--
2026-09-05 06:30 pmNNE 9.7 9.7------ 61.3-- 32.09--
2026-09-05 06:20 pm NE 9.7 15.5------ 62.1-- 32.09--
2026-09-05 06:10 pm NE 11.7 17.5------ 63.0-- 32.08--
2026-09-05 06:00 pmNNE 5.8 5.8------ 62.1-- 32.08--
2026-09-05 05:50 pmNNE 5.8 7.8------ 62.1-- 32.08--
2026-09-05 05:40 pmNNE 7.8 9.7------ 62.2-- 32.05--
2026-09-05 05:30 pm---------- 59.2- 32.05--
2026-09-05 05:20 pmNNE 9.7 11.7------ 63.3-- 32.05--
2026-09-05 05:10 pmNNE 7.8 9.7------ 63.0-----
2026-09-05 05:00 pm--- 1.6 7----------
2026-09-05 04:50 pmNNE 5.8 7.8------ 63.1-----
2026-09-05 04:40 pmNNE 5.8 7.8------ 63.0-- 31.98--
2026-09-05 04:30 pmNNE 5.8 7.8------ 62.1-- 31.98--
2026-09-05 04:20 pmNNE 5.8 7.8------ 62.2-- 31.98--
2026-09-05 04:10 pm N 3.9 3.9------ 62.6-----
2026-09-05 04:00 pm N 3.9 5.8 2.0 7---- 62.4 59.4----
2026-09-05 03:50 pm N 5.8 7.8------ 62.2-----

Ocean Conditions at 44032 as of
(2:30 pm EDT)
1830 GMT on 09/06/2026:
Note: This report is more than two hours old

These oceanographic data are displayed in rounded times.

     

Click on the graph icon in the table below to see a time series plot of the last five days of that observation.

Depth (DEPTH): 3.3 ft
5-day plot - Ocean Temperature Ocean Temperature (OTMP):59.45 °F
5-day plot - Salinity Salinity (SAL):32.07 psu
Previous observations
TIME
(EDT)
DEPTH
ft
5-day plot - Ocean Temperature
OTMP
°F
5-day plot - Conductivity
COND
mS/cm
5-day plot - Salinity
SAL
psu
5-day plot - Oxygen Saturation
O2%
%
5-day plot - Oxygen Concentration
O2PPM
ppm
5-day plot - Chlorophyll
CLCON
ug/l
5-day plot - Turbidity
TURB
FTU
5-day plot - pH
PH
 
5-day plot - Eh
EH
mV
2026-09-06 01:30 pm 3.359.97-32.04------
2026-09-06 12:30 pm 3.359.32-32.06------
2026-09-06 12:00 pm 3.358.95-32.07------
2026-09-06 11:30 am 3.358.73-32.07------
2026-09-06 10:30 am 3.358.57-32.06------
2026-09-06 09:30 am 3.358.55-32.04------
2026-09-06 08:30 am 3.358.53-32.04------
2026-09-06 07:30 am 3.358.50-32.04------
2026-09-06 06:30 am 3.358.46-32.04------
2026-09-06 06:00 am 3.358.28-32.04------
2026-09-06 05:30 am 3.358.28-32.04------
2026-09-06 04:30 am 3.358.42-32.04------
2026-09-06 04:00 am 3.358.53-32.04------
2026-09-06 03:30 am 3.358.68-32.04------
2026-09-06 02:30 am 3.358.73-32.05------
2026-09-06 01:30 am 3.358.73-32.07------
2026-09-06 12:30 am 3.358.75-32.08------
2026-09-06 12:00 am 3.358.82-32.09------
2026-09-05 11:30 pm 3.358.87-32.09------
2026-09-05 10:30 pm 3.359.09-32.09------
2026-09-05 09:30 pm 3.359.14-32.08------
2026-09-05 08:30 pm 3.359.20-32.08------
2026-09-05 07:30 pm 3.359.14-32.08------
2026-09-05 06:30 pm 3.359.11-32.09------
2026-09-05 06:00 pm 3.359.23-32.08------
2026-09-05 05:30 pm 3.359.25-32.05------
2026-09-05 04:30 pm 3.359.43-31.98------